createdAt,value
2022-08-03T00:00:28.381Z,0.63
2022-08-03T00:02:55.526Z,0.70
2022-08-03T00:05:22.559Z,0.80
2022-08-03T00:07:49.652Z,0.85
2022-08-03T00:10:18.432Z,1.08
2022-08-03T00:12:45.251Z,0.50
2022-08-03T00:15:16.699Z,0.55
2022-08-03T00:17:52.311Z,0.60
2022-08-03T00:20:21.445Z,0.60
2022-08-03T00:22:48.771Z,0.60
2022-08-03T00:25:15.743Z,0.98
2022-08-03T00:27:42.590Z,0.68
2022-08-03T00:30:09.870Z,1.60
2022-08-03T00:32:36.714Z,0.57
2022-08-03T00:35:08.334Z,0.70
2022-08-03T00:37:41.473Z,0.60
2022-08-03T00:40:11.541Z,0.52
2022-08-03T00:43:04.710Z,0.50
2022-08-03T00:45:37.682Z,0.47
2022-08-03T00:48:07.116Z,0.50
2022-08-03T00:50:54.456Z,0.40
2022-08-03T00:53:23.145Z,0.40
2022-08-03T00:55:50.153Z,0.30
2022-08-03T00:58:16.958Z,0.30
2022-08-03T01:00:43.969Z,0.50
2022-08-03T01:03:12.265Z,0.40
2022-08-03T01:05:49.848Z,0.30
2022-08-03T01:08:23.203Z,0.50
2022-08-03T01:11:06.774Z,1.52
2022-08-03T01:14:02.389Z,0.63
2022-08-03T01:17:04.190Z,0.50
2022-08-03T01:22:50.164Z,1.27
2022-08-03T01:25:38.607Z,1.15
2022-08-03T01:28:28.291Z,0.70
2022-08-03T01:31:00.190Z,0.50
2022-08-03T01:33:37.465Z,0.70
2022-08-03T01:36:09.713Z,0.68
2022-08-03T01:38:42.226Z,1.00
2022-08-03T01:41:16.582Z,0.93
2022-08-03T01:43:58.905Z,0.80
2022-08-03T01:46:38.566Z,0.77
2022-08-03T01:49:10.600Z,0.70
2022-08-03T01:51:58.708Z,0.70
2022-08-03T01:54:29.931Z,0.75
2022-08-03T01:56:59.112Z,0.60
2022-08-03T01:59:27.952Z,0.50
2022-08-03T02:02:15.650Z,0.63
2022-08-03T02:04:44.450Z,0.50
2022-08-03T02:07:12.741Z,0.55
2022-08-03T02:09:41.280Z,0.70
2022-08-03T02:12:12.323Z,0.52
2022-08-03T02:14:41.657Z,0.80
2022-08-03T02:17:09.292Z,0.50
2022-08-03T02:19:38.133Z,0.65
2022-08-03T02:22:08.496Z,0.60
2022-08-03T02:24:35.726Z,0.50
2022-08-03T02:27:13.274Z,0.47
2022-08-03T02:29:41.819Z,0.40
2022-08-03T02:32:17.284Z,0.57
2022-08-03T02:34:49.018Z,0.65
2022-08-03T02:37:19.306Z,0.60
2022-08-03T02:39:49.277Z,0.45
2022-08-03T02:42:19.517Z,0.50
2022-08-03T02:44:50.342Z,0.70
2022-08-03T02:47:20.978Z,1.17
2022-08-03T02:49:52.084Z,0.73
2022-08-03T02:52:23.483Z,0.60
2022-08-03T02:54:55.268Z,0.50
2022-08-03T02:57:24.924Z,0.45
2022-08-03T02:59:53.086Z,0.60
2022-08-03T03:02:20.985Z,0.60
2022-08-03T03:05:51.518Z,0.50
2022-08-03T03:07:51.174Z,1.08
2022-08-03T03:10:24.627Z,0.85
2022-08-03T03:12:55.198Z,0.95
2022-08-03T03:15:26.119Z,0.60
2022-08-03T03:17:53.779Z,0.60
2022-08-03T03:20:29.332Z,0.40
2022-08-03T03:23:03.242Z,0.50
2022-08-03T03:25:34.399Z,0.68
2022-08-03T03:28:02.230Z,0.47
2022-08-03T03:30:30.166Z,0.70
2022-08-03T03:32:58.433Z,0.70
2022-08-03T03:35:26.586Z,0.60
2022-08-03T03:37:54.191Z,0.50
2022-08-03T03:40:21.990Z,0.40
2022-08-03T03:42:49.981Z,0.45
2022-08-03T03:45:17.214Z,0.40
2022-08-03T03:47:44.194Z,0.40
2022-08-03T03:50:17.797Z,0.55
2022-08-03T03:52:44.805Z,0.60
2022-08-03T03:55:16.373Z,0.50
2022-08-03T03:57:43.345Z,0.60
2022-08-03T04:00:12.133Z,0.80
2022-08-03T04:02:39.763Z,0.50
2022-08-03T04:05:26.124Z,0.68
2022-08-03T04:08:17.076Z,1.00
2022-08-03T04:10:58.965Z,1.08
2022-08-03T04:13:32.476Z,0.98
2022-08-03T04:16:00.258Z,1.50
2022-08-03T04:18:30.343Z,1.27
2022-08-03T04:20:58.995Z,1.90
2022-08-03T04:23:27.686Z,1.25
2022-08-03T04:25:56.622Z,0.70
2022-08-03T04:28:31.113Z,0.70
2022-08-03T04:31:00.958Z,0.50
2022-08-03T04:33:32.429Z,0.50
2022-08-03T04:36:03.670Z,0.60
2022-08-03T04:38:36.692Z,0.50
2022-08-03T04:41:04.783Z,0.45
2022-08-03T04:43:34.230Z,0.60
2022-08-03T04:46:02.271Z,0.40
2022-08-03T04:48:29.522Z,0.57
2022-08-03T04:50:56.477Z,0.73
2022-08-03T04:53:23.377Z,0.52
2022-08-03T04:55:50.263Z,0.57
2022-08-03T04:58:17.293Z,0.57
2022-08-03T05:00:45.698Z,0.63
2022-08-03T05:03:20.542Z,0.80
2022-08-03T05:05:52.879Z,0.70
2022-08-03T05:08:27.670Z,0.80
2022-08-03T05:10:55.824Z,0.50
2022-08-03T05:13:26.183Z,0.60
2022-08-03T05:15:53.052Z,0.60
2022-08-03T05:18:20.088Z,0.60
2022-08-03T05:20:47.061Z,0.50
2022-08-03T05:23:13.921Z,0.50
2022-08-03T05:25:40.832Z,0.93
2022-08-03T05:28:16.786Z,0.98
2022-08-03T05:30:43.684Z,0.60
2022-08-03T05:33:11.141Z,0.50
2022-08-03T05:36:00.709Z,0.40
2022-08-03T05:38:28.596Z,0.50
2022-08-03T05:41:20.520Z,0.40
2022-08-03T05:43:47.578Z,0.50
2022-08-03T05:46:14.612Z,0.40
2022-08-03T05:48:42.632Z,0.50
2022-08-03T05:51:11.935Z,0.43
2022-08-03T05:53:40.280Z,0.63
2022-08-03T05:56:13.819Z,1.00
2022-08-03T05:58:43.921Z,0.70
2022-08-03T06:01:10.920Z,0.40
2022-08-03T06:03:37.830Z,0.40
2022-08-03T06:06:04.743Z,0.50
2022-08-03T06:08:31.664Z,0.60
2022-08-03T06:10:58.633Z,0.65
2022-08-03T06:13:25.427Z,0.50
2022-08-03T06:15:52.274Z,0.60
2022-08-03T06:18:19.162Z,0.70
2022-08-03T06:20:47.194Z,0.90
2022-08-03T06:23:18.040Z,0.55
2022-08-03T06:25:45.938Z,0.60
2022-08-03T06:28:42.497Z,0.88
2022-08-03T06:31:02.366Z,0.60
2022-08-03T06:34:31.539Z,0.50
2022-08-03T06:36:16.154Z,0.40
2022-08-03T06:38:43.005Z,0.82
2022-08-03T06:41:09.802Z,0.50
2022-08-03T06:44:03.258Z,0.60
2022-08-03T06:46:26.107Z,0.60
2022-08-03T06:48:53.264Z,0.60
2022-08-03T06:51:20.301Z,0.60
2022-08-03T06:53:47.091Z,0.52
2022-08-03T06:56:13.958Z,0.80
2022-08-03T06:58:41.203Z,0.80
2022-08-03T07:01:08.136Z,0.88
2022-08-03T07:03:34.927Z,0.77
2022-08-03T07:06:02.574Z,0.63
2022-08-03T07:08:33.944Z,0.85
2022-08-03T07:11:02.290Z,0.73
2022-08-03T07:13:29.693Z,0.65
2022-08-03T07:15:56.822Z,0.60
2022-08-03T07:18:29.609Z,1.13
2022-08-03T07:20:57.607Z,1.00
2022-08-03T07:23:25.592Z,1.25
2022-08-03T07:25:52.644Z,0.52
2022-08-03T07:28:20.410Z,0.73
2022-08-03T07:30:48.051Z,1.23
2022-08-03T07:33:15.316Z,0.60
2022-08-03T07:35:42.517Z,0.73
2022-08-03T07:38:09.519Z,0.60
2022-08-03T07:40:36.403Z,0.80
2022-08-03T07:43:03.891Z,1.15
2022-08-03T07:45:31.579Z,0.98
2022-08-03T07:47:58.426Z,0.80
2022-08-03T07:50:25.615Z,1.45
2022-08-03T07:52:54.111Z,1.73
2022-08-03T07:55:23.359Z,1.00
2022-08-03T07:58:12.592Z,1.40
2022-08-03T08:00:39.887Z,0.70
2022-08-03T08:03:06.786Z,0.90
2022-08-03T08:05:34.354Z,3.20
2022-08-03T08:08:03.080Z,1.20
2022-08-03T08:10:30.314Z,1.00
2022-08-03T08:12:57.844Z,1.13
2022-08-03T08:15:24.925Z,1.08
2022-08-03T08:17:54.599Z,1.40
2022-08-03T08:20:28.359Z,1.13
2022-08-03T08:23:03.453Z,1.20
2022-08-03T08:25:34.791Z,3.47
2022-08-03T08:28:22.324Z,2.53
2022-08-03T08:30:50.701Z,1.65
2022-08-03T08:33:23.327Z,1.30
2022-08-03T08:35:52.092Z,2.88
2022-08-03T08:38:18.990Z,1.30
2022-08-03T08:40:46.267Z,1.25
2022-08-03T08:43:13.239Z,1.35
2022-08-03T08:45:41.643Z,1.55
2022-08-03T08:48:10.738Z,1.90
2022-08-03T08:50:38.472Z,2.83
2022-08-03T08:53:10.720Z,3.67
2022-08-03T08:55:58.104Z,3.03
2022-08-03T08:58:35.248Z,1.98
2022-08-03T09:01:03.434Z,1.92
2022-08-03T09:03:32.567Z,1.45
2022-08-03T09:06:01.237Z,1.55
2022-08-03T09:08:30.462Z,2.50
2022-08-03T09:10:57.449Z,2.15
2022-08-03T09:13:24.389Z,4.97
2022-08-03T09:16:12.454Z,5.40
2022-08-03T09:18:40.000Z,3.33
2022-08-03T09:21:33.548Z,2.65
2022-08-03T09:24:05.412Z,3.75
2022-08-03T09:26:35.930Z,3.13
2022-08-03T09:29:14.562Z,1.42
2022-08-03T09:31:46.621Z,0.70
2022-08-03T09:34:16.014Z,1.70
2022-08-03T09:36:43.873Z,1.40
2022-08-03T09:39:15.061Z,1.25
2022-08-03T09:41:44.548Z,0.93
2022-08-03T09:44:25.359Z,1.38
2022-08-03T09:46:56.980Z,1.08
2022-08-03T09:49:25.184Z,1.27
2022-08-03T09:52:33.647Z,1.05
2022-08-03T09:54:40.020Z,2.17
2022-08-03T09:57:06.960Z,1.10
2022-08-03T09:59:34.462Z,0.82
2022-08-03T10:02:02.029Z,1.00
2022-08-03T10:04:31.166Z,0.98
2022-08-03T10:07:05.498Z,0.98
2022-08-03T10:09:32.498Z,0.80
2022-08-03T10:12:11.136Z,1.13
2022-08-03T10:14:42.155Z,0.85
2022-08-03T10:17:09.967Z,1.48
2022-08-03T10:19:37.094Z,0.95
2022-08-03T10:22:09.121Z,1.00
2022-08-03T10:24:37.444Z,1.00
2022-08-03T10:27:07.320Z,1.00
2022-08-03T10:29:39.071Z,1.02
2022-08-03T10:32:16.168Z,0.80
2022-08-03T10:34:44.965Z,1.27
2022-08-03T10:37:13.957Z,1.23
2022-08-03T10:39:53.456Z,1.20
2022-08-03T10:42:28.319Z,0.90
2022-08-03T10:45:07.056Z,0.88
2022-08-03T10:47:35.369Z,1.10
2022-08-03T10:50:03.860Z,1.08
2022-08-03T10:52:32.994Z,0.98
2022-08-03T10:55:51.177Z,0.70
2022-08-03T10:58:36.762Z,0.70
2022-08-03T11:01:08.712Z,0.70
2022-08-03T11:03:55.472Z,0.80
2022-08-03T11:06:25.524Z,2.25
2022-08-03T11:09:10.841Z,1.05
2022-08-03T11:11:39.491Z,1.17
2022-08-03T11:14:22.318Z,1.55
2022-08-03T11:16:53.115Z,1.20
2022-08-03T11:19:27.696Z,0.93
2022-08-03T11:21:56.270Z,0.95
2022-08-03T11:24:39.415Z,0.98
2022-08-03T11:27:18.909Z,0.70
2022-08-03T11:30:20.074Z,1.27
2022-08-03T11:32:48.423Z,1.40
2022-08-03T11:35:21.871Z,1.00
2022-08-03T11:38:01.998Z,0.93
2022-08-03T11:40:48.025Z,2.17
2022-08-03T11:43:31.351Z,1.40
2022-08-03T11:46:02.381Z,1.75
2022-08-03T11:48:39.660Z,1.33
2022-08-03T11:51:08.417Z,1.20
2022-08-03T11:53:41.927Z,0.98
2022-08-03T11:56:13.078Z,1.20
2022-08-03T11:59:01.643Z,0.70
2022-08-03T12:01:36.266Z,0.80
2022-08-03T12:04:04.842Z,0.95
2022-08-03T12:06:31.683Z,1.17
2022-08-03T12:08:58.483Z,0.80
2022-08-03T12:11:25.382Z,1.20
2022-08-03T12:14:05.735Z,1.10
2022-08-03T12:16:39.311Z,1.15
2022-08-03T12:19:09.203Z,1.10
2022-08-03T12:21:56.854Z,1.02
2022-08-03T12:24:24.416Z,1.00
2022-08-03T12:26:58.323Z,1.30
2022-08-03T12:29:26.357Z,1.00
2022-08-03T12:31:53.245Z,1.30
2022-08-03T12:34:20.139Z,0.90
2022-08-03T12:36:56.623Z,0.70
2022-08-03T12:39:25.712Z,1.38
2022-08-03T12:41:56.874Z,2.33
2022-08-03T12:44:34.882Z,1.17
2022-08-03T12:47:06.182Z,1.15
2022-08-03T12:49:47.375Z,1.02
2022-08-03T12:52:16.100Z,1.08
2022-08-03T12:54:43.898Z,2.35
2022-08-03T12:57:15.809Z,1.02
2022-08-03T12:59:53.163Z,1.15
2022-08-03T13:02:24.462Z,1.20
2022-08-03T13:04:53.339Z,1.35
2022-08-03T13:07:21.171Z,1.20
2022-08-03T13:09:49.595Z,1.38
2022-08-03T13:12:21.804Z,1.45
2022-08-03T13:14:51.012Z,1.20
2022-08-03T13:17:18.728Z,1.38
2022-08-03T13:19:47.386Z,1.30
2022-08-03T13:22:15.735Z,1.90
2022-08-03T13:24:44.171Z,1.30
2022-08-03T13:28:00.988Z,1.30
2022-08-03T13:29:58.456Z,1.10
2022-08-03T13:32:25.361Z,1.10
2022-08-03T13:34:52.203Z,1.77
2022-08-03T13:37:22.260Z,0.80
2022-08-03T13:39:59.481Z,0.93
2022-08-03T13:42:32.947Z,1.08
2022-08-03T13:45:00.591Z,1.20
2022-08-03T13:47:28.123Z,1.27
2022-08-03T13:50:01.170Z,1.10
2022-08-03T13:52:32.947Z,1.48
2022-08-03T13:55:00.547Z,1.02
2022-08-03T13:58:05.753Z,1.08
2022-08-03T14:00:26.437Z,1.52
2022-08-03T14:02:56.242Z,1.65
2022-08-03T14:05:29.066Z,0.95
2022-08-03T14:08:03.928Z,1.10
2022-08-03T14:10:35.959Z,1.20
2022-08-03T14:13:03.264Z,1.30
2022-08-03T14:15:30.237Z,1.40
2022-08-03T14:17:58.498Z,1.33
2022-08-03T14:20:37.689Z,1.15
2022-08-03T14:23:14.476Z,1.30
2022-08-03T14:25:44.313Z,1.25
2022-08-03T14:28:22.808Z,1.73
2022-08-03T14:30:51.696Z,2.45
2022-08-03T14:33:18.938Z,1.20
2022-08-03T14:35:45.759Z,1.00
2022-08-03T14:38:12.584Z,1.08
2022-08-03T14:40:40.167Z,1.50
2022-08-03T14:43:07.274Z,1.00
2022-08-03T14:45:34.501Z,1.20
2022-08-03T14:50:30.062Z,0.80
2022-08-03T14:50:51.748Z,0.80
2022-08-03T14:53:19.506Z,1.20
2022-08-03T14:55:50.878Z,1.13
2022-08-03T14:58:21.501Z,1.08
2022-08-03T15:00:49.474Z,0.93
2022-08-03T15:03:24.042Z,1.05
2022-08-03T15:05:52.993Z,2.40
2022-08-03T15:08:20.712Z,0.70
2022-08-03T15:10:48.412Z,1.08
2022-08-03T15:13:16.681Z,1.17
2022-08-03T15:15:43.615Z,1.35
2022-08-03T15:18:10.521Z,1.05
2022-08-03T15:20:46.264Z,1.27
2022-08-03T15:23:15.761Z,0.77
2022-08-03T15:26:04.088Z,1.10
2022-08-03T15:28:34.065Z,0.77
2022-08-03T15:31:02.245Z,1.02
2022-08-03T15:33:29.311Z,1.65
2022-08-03T15:35:57.292Z,0.98
2022-08-03T15:38:26.265Z,1.20
2022-08-03T15:40:57.081Z,1.17
2022-08-03T15:43:24.580Z,1.38
2022-08-03T15:46:26.476Z,1.10
2022-08-03T15:48:39.299Z,0.70
2022-08-03T15:51:08.360Z,0.98
2022-08-03T15:53:35.593Z,0.85
2022-08-03T15:56:09.397Z,1.00
2022-08-03T15:59:09.446Z,1.05
2022-08-03T16:01:26.649Z,1.40
2022-08-03T16:03:53.585Z,0.98
2022-08-03T16:06:35.234Z,1.15
2022-08-03T16:09:05.542Z,0.90
2022-08-03T16:11:51.283Z,0.77
2022-08-03T16:14:32.687Z,0.93
2022-08-03T16:17:03.001Z,1.27
2022-08-03T16:19:29.898Z,0.88
2022-08-03T16:21:56.670Z,1.10
2022-08-03T16:24:27.811Z,0.70
2022-08-03T16:26:55.884Z,0.73
2022-08-03T16:29:23.653Z,1.17
2022-08-03T16:31:51.809Z,0.90
2022-08-03T16:34:19.111Z,0.65
2022-08-03T16:36:50.280Z,1.05
2022-08-03T16:39:17.160Z,0.80
2022-08-03T16:41:54.189Z,0.80
2022-08-03T16:44:31.332Z,0.70
2022-08-03T16:46:59.448Z,1.52
2022-08-03T16:49:53.838Z,0.85
2022-08-03T16:52:13.427Z,0.73
2022-08-03T16:54:40.731Z,0.60
2022-08-03T16:57:07.742Z,1.10
2022-08-03T16:59:36.443Z,0.60
2022-08-03T17:02:09.556Z,0.70
2022-08-03T17:04:40.169Z,0.70
2022-08-03T17:07:08.912Z,0.70
2022-08-03T17:09:38.395Z,0.70
2022-08-03T17:12:06.234Z,0.60
2022-08-03T17:14:34.238Z,0.57
2022-08-03T17:17:04.101Z,0.73
2022-08-03T17:19:32.567Z,0.80
2022-08-03T17:22:16.062Z,1.00
2022-08-03T17:24:50.920Z,1.23
2022-08-03T17:28:49.200Z,1.23
2022-08-03T17:30:13.594Z,1.10
2022-08-03T17:32:57.722Z,0.80
2022-08-03T17:35:34.512Z,0.85
2022-08-03T17:38:08.901Z,1.00
2022-08-03T17:40:48.138Z,1.30
2022-08-03T17:44:13.227Z,0.80
2022-08-03T17:46:07.322Z,0.98
2022-08-03T17:48:41.297Z,0.90
2022-08-03T17:51:46.263Z,1.02
2022-08-03T17:54:23.963Z,0.93
2022-08-03T17:57:22.552Z,0.60
2022-08-03T18:00:30.139Z,0.85
2022-08-03T18:03:20.699Z,1.38
2022-08-03T18:06:10.692Z,0.80
2022-08-03T18:08:50.423Z,1.05
2022-08-03T18:11:21.798Z,0.70
2022-08-03T18:14:23.795Z,0.75
2022-08-03T18:17:00.462Z,0.60
2022-08-03T18:20:03.681Z,5.53
2022-08-03T18:22:20.897Z,2.38
2022-08-03T18:24:52.144Z,4.20
2022-08-03T18:27:20.887Z,1.35
2022-08-03T18:29:50.106Z,1.15
2022-08-03T18:32:18.933Z,0.70
2022-08-03T18:34:53.642Z,0.50
2022-08-03T18:37:25.979Z,0.57
2022-08-03T18:39:57.871Z,0.47
2022-08-03T18:42:26.265Z,0.28
2022-08-03T18:44:56.141Z,0.43
2022-08-03T18:47:26.496Z,0.32
2022-08-03T18:50:08.623Z,0.30
2022-08-03T18:53:16.538Z,0.30
2022-08-03T18:56:03.564Z,0.30
2022-08-03T18:58:52.254Z,0.95
2022-08-03T19:01:57.871Z,0.40
2022-08-03T19:04:35.380Z,0.20
2022-08-03T19:07:08.986Z,0.20
2022-08-03T19:09:47.753Z,0.35
2022-08-03T19:12:42.503Z,0.28
2022-08-03T19:15:15.638Z,0.50
2022-08-03T19:17:50.139Z,0.20
2022-08-03T19:20:26.168Z,0.20
2022-08-03T19:22:55.206Z,0.43
2022-08-03T19:25:35.394Z,0.20
2022-08-03T19:28:06.019Z,0.20
2022-08-03T19:30:46.234Z,0.38
2022-08-03T19:33:20.362Z,0.20
2022-08-03T19:35:55.640Z,0.30
2022-08-03T19:38:28.428Z,0.20
2022-08-03T19:41:02.672Z,0.30
2022-08-03T19:43:53.313Z,0.30
2022-08-03T19:46:22.353Z,0.20
2022-08-03T19:49:01.356Z,0.40
2022-08-03T19:52:02.159Z,0.45
2022-08-03T19:54:29.787Z,0.75
2022-08-03T19:57:00.337Z,0.47
2022-08-03T19:59:32.609Z,0.40
2022-08-03T20:01:59.792Z,0.40
2022-08-03T20:04:26.831Z,0.30
2022-08-03T20:06:57.145Z,0.75
2022-08-03T20:09:30.395Z,0.30
2022-08-03T20:11:57.694Z,0.38
2022-08-03T20:14:26.678Z,0.45
2022-08-03T20:16:54.238Z,2.35
2022-08-03T20:19:22.422Z,0.85
2022-08-03T20:21:55.189Z,2.20
2022-08-03T20:24:35.253Z,0.75
2022-08-03T20:27:07.772Z,0.88
2022-08-03T20:30:06.088Z,0.95
2022-08-03T20:32:26.054Z,0.73
2022-08-03T20:34:53.385Z,0.70
2022-08-03T20:37:20.350Z,0.75
2022-08-03T20:39:49.490Z,0.40
2022-08-03T20:42:21.645Z,0.40
2022-08-03T20:44:58.956Z,0.40
2022-08-03T20:47:35.879Z,0.40
2022-08-03T20:50:07.483Z,0.30
2022-08-03T20:52:49.299Z,0.30
2022-08-03T20:55:20.227Z,0.45
2022-08-03T20:57:49.199Z,0.30
2022-08-03T21:03:09.008Z,0.30
2022-08-03T21:05:51.303Z,0.32
2022-08-03T21:08:24.677Z,0.28
2022-08-03T21:10:53.522Z,0.40
2022-08-03T21:13:12.153Z,0.22
2022-08-03T21:13:32.059Z,0.50
2022-08-03T21:16:12.564Z,1.05
2022-08-03T21:18:49.236Z,0.40
2022-08-03T21:21:19.217Z,0.30
2022-08-03T21:23:50.171Z,0.35
2022-08-03T21:26:24.016Z,0.20
2022-08-03T21:28:53.485Z,0.38
2022-08-03T21:31:25.348Z,0.30
2022-08-03T21:34:04.810Z,1.30
2022-08-03T21:36:35.024Z,0.30
2022-08-03T21:39:05.343Z,0.30
2022-08-03T21:41:33.172Z,0.35
2022-08-03T21:44:03.325Z,0.30
2022-08-03T21:46:37.934Z,0.35
2022-08-03T21:50:05.703Z,0.30
2022-08-03T21:52:02.917Z,0.50
2022-08-03T21:54:38.268Z,0.85
2022-08-03T21:57:13.131Z,1.13
2022-08-03T21:59:47.993Z,1.50
2022-08-03T22:02:24.014Z,1.17
2022-08-03T22:04:56.991Z,0.88
2022-08-03T22:07:26.981Z,0.95
2022-08-03T22:09:58.867Z,0.95
2022-08-03T22:12:28.900Z,0.70
2022-08-03T22:15:01.337Z,1.05
2022-08-03T22:17:53.793Z,1.08
2022-08-03T22:20:20.949Z,1.23
2022-08-03T22:22:55.776Z,1.40
2022-08-03T22:25:32.708Z,1.02
2022-08-03T22:28:04.093Z,2.13
2022-08-03T22:30:33.128Z,0.95
2022-08-03T22:33:02.258Z,0.65
2022-08-03T22:35:32.915Z,0.90
2022-08-03T22:38:17.083Z,0.85
2022-08-03T22:40:44.516Z,0.95
2022-08-03T22:43:11.414Z,1.05
2022-08-03T22:46:06.193Z,0.57
2022-08-03T22:48:30.226Z,0.52
2022-08-03T22:51:03.525Z,0.60
2022-08-03T22:53:31.121Z,0.40
2022-08-03T22:55:58.619Z,0.40
2022-08-03T22:58:25.543Z,0.40
2022-08-03T23:01:02.653Z,0.52
2022-08-03T23:04:00.228Z,0.63
2022-08-03T23:06:25.490Z,0.50
2022-08-03T23:08:53.642Z,0.98
2022-08-03T23:11:26.820Z,1.20
2022-08-03T23:13:56.677Z,0.60
2022-08-03T23:16:29.313Z,0.80
2022-08-03T23:18:58.674Z,0.65
2022-08-03T23:22:00.820Z,0.90
2022-08-03T23:24:29.105Z,0.63
2022-08-03T23:26:58.349Z,0.73
2022-08-03T23:29:28.932Z,0.70
2022-08-03T23:31:57.489Z,0.80
2022-08-03T23:34:44.645Z,0.88
2022-08-03T23:37:14.121Z,0.80
2022-08-03T23:39:42.313Z,0.88
2022-08-03T23:42:11.223Z,0.60
2022-08-03T23:44:41.739Z,0.55
2022-08-03T23:47:08.591Z,0.30
2022-08-03T23:49:35.571Z,0.30
2022-08-03T23:52:06.836Z,0.73
2022-08-03T23:54:54.463Z,0.65
2022-08-03T23:57:37.435Z,0.47
